createdAt,value
2023-02-25T00:00:16.731Z,99.0
2023-02-25T00:01:17.230Z,98.9
2023-02-25T00:02:16.661Z,99.0
2023-02-25T00:03:17.307Z,98.8
2023-02-25T00:04:16.859Z,98.6
2023-02-25T00:05:17.343Z,98.6
2023-02-25T00:06:16.870Z,98.6
2023-02-25T00:07:17.359Z,98.7
2023-02-25T00:08:16.873Z,98.7
2023-02-25T00:09:17.359Z,98.6
2023-02-25T00:10:16.864Z,98.6
2023-02-25T00:11:17.399Z,98.5
2023-02-25T00:12:16.779Z,98.6
2023-02-25T00:13:18.768Z,98.6
2023-02-25T00:14:17.332Z,98.4
2023-02-25T00:15:16.864Z,98.4
2023-02-25T00:16:17.619Z,98.5
2023-02-25T00:17:17.137Z,98.5
2023-02-25T00:18:16.666Z,98.5
2023-02-25T00:19:17.176Z,98.2
2023-02-25T00:20:16.695Z,98.2
2023-02-25T00:21:17.166Z,98.2
2023-02-25T00:22:16.832Z,98.2
2023-02-25T00:23:17.377Z,98.1
2023-02-25T00:24:17.443Z,98.4
2023-02-25T00:25:16.972Z,98.5
2023-02-25T00:26:16.471Z,98.6
2023-02-25T00:27:16.955Z,98.4
2023-02-25T00:28:17.464Z,98.4
2023-02-25T00:29:17.003Z,98.4
2023-02-25T00:30:16.514Z,98.4
2023-02-25T00:31:17.318Z,98.4
2023-02-25T00:32:17.926Z,98.3
2023-02-25T00:33:16.532Z,98.3
2023-02-25T00:34:17.019Z,98.2
2023-02-25T00:35:16.495Z,98.1
2023-02-25T00:36:16.969Z,98.3
2023-02-25T00:37:17.594Z,98.4
2023-02-25T00:38:17.094Z,98.4
2023-02-25T00:39:16.676Z,98.3
2023-02-25T00:40:17.169Z,98.2
2023-02-25T00:41:16.670Z,98.1
2023-02-25T00:42:16.677Z,98.1
2023-02-25T00:43:17.201Z,98.1
2023-02-25T00:44:16.719Z,97.9
2023-02-25T00:45:17.251Z,97.9
2023-02-25T00:46:16.918Z,97.9
2023-02-25T00:47:17.451Z,97.9
2023-02-25T00:48:16.971Z,97.9
2023-02-25T00:49:32.312Z,97.9
2023-02-25T00:50:17.212Z,98.0
2023-02-25T00:51:16.720Z,98.1
2023-02-25T00:52:17.020Z,98.0
2023-02-25T00:53:16.518Z,97.7
2023-02-25T00:54:17.024Z,97.9
2023-02-25T00:55:16.562Z,97.9
2023-02-25T00:56:17.057Z,97.7
2023-02-25T00:57:16.552Z,97.6
2023-02-25T00:58:17.024Z,97.7
2023-02-25T00:59:16.533Z,97.5
2023-02-25T01:00:17.069Z,97.6
2023-02-25T01:01:16.609Z,97.5
2023-02-25T01:02:17.228Z,97.5
2023-02-25T01:03:16.745Z,97.5
2023-02-25T01:04:17.257Z,97.4
2023-02-25T01:05:17.053Z,97.4
2023-02-25T01:06:16.891Z,97.5
2023-02-25T01:07:16.494Z,97.5
2023-02-25T01:08:16.998Z,97.6
2023-02-25T01:09:16.523Z,97.6
2023-02-25T01:10:17.048Z,97.6
2023-02-25T01:11:16.533Z,97.7
2023-02-25T01:12:17.009Z,97.7
2023-02-25T01:13:16.529Z,97.6
2023-02-25T01:14:17.040Z,97.6
2023-02-25T01:15:16.555Z,97.6
2023-02-25T01:16:17.225Z,97.5
2023-02-25T01:17:16.745Z,97.6
2023-02-25T01:18:17.273Z,97.4
2023-02-25T01:19:16.800Z,97.3
2023-02-25T01:20:17.318Z,97.5
2023-02-25T01:21:16.803Z,97.4
2023-02-25T01:22:16.497Z,97.4
2023-02-25T01:23:17.040Z,97.4
2023-02-25T01:24:16.554Z,97.5
2023-02-25T01:25:17.090Z,97.4
2023-02-25T01:26:16.613Z,97.2
2023-02-25T01:27:17.139Z,97.5
2023-02-25T01:28:16.631Z,97.5
2023-02-25T01:29:17.176Z,97.4
2023-02-25T01:30:16.707Z,97.4
2023-02-25T01:31:17.411Z,97.4
2023-02-25T01:32:16.835Z,97.3
2023-02-25T01:33:17.349Z,97.4
2023-02-25T01:34:16.818Z,97.3
2023-02-25T01:35:17.326Z,97.3
2023-02-25T01:36:16.824Z,97.3
2023-02-25T01:37:17.359Z,97.4
2023-02-25T01:38:16.863Z,97.3
2023-02-25T01:39:17.365Z,97.4
2023-02-25T01:40:16.915Z,97.4
2023-02-25T01:41:17.405Z,97.6
2023-02-25T01:42:16.905Z,97.5
2023-02-25T01:43:17.410Z,97.4
2023-02-25T01:44:16.898Z,97.4
2023-02-25T01:45:17.399Z,97.4
2023-02-25T01:46:16.979Z,97.4
2023-02-25T01:47:16.460Z,97.5
2023-02-25T01:48:16.964Z,97.3
2023-02-25T01:49:17.491Z,97.1
2023-02-25T01:50:17.016Z,97.1
2023-02-25T01:51:16.508Z,97.2
2023-02-25T01:52:16.849Z,97.1
2023-02-25T01:53:17.332Z,97.2
2023-02-25T01:54:16.834Z,97.2
2023-02-25T01:55:17.447Z,97.1
2023-02-25T01:56:16.950Z,97.1
2023-02-25T01:57:17.451Z,97.1
2023-02-25T01:58:16.963Z,97.1
2023-02-25T01:59:16.487Z,97.0
2023-02-25T02:00:17.001Z,96.9
2023-02-25T02:01:16.533Z,96.6
2023-02-25T02:02:16.892Z,96.7
2023-02-25T02:03:17.441Z,96.5
2023-02-25T02:04:16.930Z,96.6
2023-02-25T02:05:17.427Z,96.4
2023-02-25T02:06:16.960Z,96.3
2023-02-25T02:07:17.472Z,96.5
2023-02-25T02:08:17.020Z,96.1
2023-02-25T02:09:16.527Z,96.0
2023-02-25T02:10:17.014Z,95.8
2023-02-25T02:11:16.515Z,95.7
2023-02-25T02:12:17.085Z,95.8
2023-02-25T02:13:16.587Z,95.8
2023-02-25T02:14:17.113Z,95.6
2023-02-25T02:15:16.649Z,95.6
2023-02-25T02:16:17.300Z,95.6
2023-02-25T02:17:16.803Z,95.6
2023-02-25T02:18:17.338Z,95.8
2023-02-25T02:19:16.892Z,95.8
2023-02-25T02:20:17.399Z,95.8
2023-02-25T02:21:16.873Z,95.4
2023-02-25T02:22:17.508Z,95.5
2023-02-25T02:23:17.021Z,95.7
2023-02-25T02:24:16.516Z,95.7
2023-02-25T02:25:17.014Z,95.6
2023-02-25T02:26:16.522Z,95.6
2023-02-25T02:27:17.025Z,95.8
2023-02-25T02:28:16.553Z,95.8
2023-02-25T02:29:17.227Z,95.6
2023-02-25T02:30:16.718Z,95.5
2023-02-25T02:31:17.484Z,95.6
2023-02-25T02:32:17.179Z,95.7
2023-02-25T02:33:16.753Z,95.7
2023-02-25T02:34:17.239Z,95.8
2023-02-25T02:35:16.753Z,95.8
2023-02-25T02:36:17.262Z,95.9
2023-02-25T02:37:16.789Z,95.8
2023-02-25T02:38:17.303Z,95.9
2023-02-25T02:39:16.811Z,95.7
2023-02-25T02:40:17.311Z,95.9
2023-02-25T02:41:16.806Z,95.9
2023-02-25T02:42:17.454Z,95.9
2023-02-25T02:43:16.937Z,95.8
2023-02-25T02:44:17.413Z,95.8
2023-02-25T02:45:16.941Z,95.8
2023-02-25T02:46:17.422Z,95.7
2023-02-25T02:47:16.910Z,95.8
2023-02-25T02:48:17.388Z,95.9
2023-02-25T02:49:16.890Z,95.9
2023-02-25T02:50:17.393Z,95.9
2023-02-25T02:51:16.950Z,95.8
2023-02-25T02:52:16.521Z,95.9
2023-02-25T02:53:17.030Z,95.8
2023-02-25T02:54:16.555Z,95.9
2023-02-25T02:55:17.061Z,95.8
2023-02-25T02:56:16.564Z,95.8
2023-02-25T02:57:17.045Z,95.8
2023-02-25T02:58:16.540Z,95.7
2023-02-25T02:59:17.188Z,95.8
2023-02-25T03:00:16.748Z,95.6
2023-02-25T03:01:17.496Z,95.6
2023-02-25T03:02:16.800Z,95.6
2023-02-25T03:03:17.297Z,95.5
2023-02-25T03:04:16.957Z,95.5
2023-02-25T03:05:16.493Z,95.5
2023-02-25T03:06:16.997Z,95.4
2023-02-25T03:07:16.560Z,95.5
2023-02-25T03:08:17.051Z,95.4
2023-02-25T03:09:16.771Z,95.4
2023-02-25T03:10:16.580Z,95.3
2023-02-25T03:11:17.068Z,95.3
2023-02-25T03:12:16.503Z,95.4
2023-02-25T03:13:16.990Z,95.3
2023-02-25T03:14:16.521Z,95.3
2023-02-25T03:15:17.052Z,95.2
2023-02-25T03:16:16.698Z,95.3
2023-02-25T03:17:17.279Z,94.9
2023-02-25T03:18:16.802Z,95.1
2023-02-25T03:19:17.333Z,95.0
2023-02-25T03:20:16.840Z,95.0
2023-02-25T03:21:17.327Z,95.2
2023-02-25T03:22:17.394Z,95.1
2023-02-25T03:23:16.924Z,95.2
2023-02-25T03:24:17.442Z,95.3
2023-02-25T03:25:16.963Z,95.2
2023-02-25T03:26:17.437Z,95.4
2023-02-25T03:27:16.925Z,95.0
2023-02-25T03:28:17.394Z,95.2
2023-02-25T03:29:16.881Z,94.8
2023-02-25T03:30:17.406Z,94.9
2023-02-25T03:31:16.969Z,94.9
2023-02-25T03:32:16.833Z,94.9
2023-02-25T03:33:17.369Z,95.1
2023-02-25T03:34:16.860Z,95.1
2023-02-25T03:35:17.348Z,94.7
2023-02-25T03:36:16.839Z,94.8
2023-02-25T03:37:17.408Z,94.5
2023-02-25T03:38:16.911Z,94.6
2023-02-25T03:39:17.406Z,94.6
2023-02-25T03:40:16.887Z,94.7
2023-02-25T03:41:17.411Z,94.7
2023-02-25T03:42:16.613Z,94.6
2023-02-25T03:43:17.092Z,94.7
2023-02-25T03:44:16.638Z,94.9
2023-02-25T03:45:17.148Z,94.8
2023-02-25T03:46:16.821Z,94.8
2023-02-25T03:47:17.388Z,94.6
2023-02-25T03:48:16.901Z,94.6
2023-02-25T03:49:17.544Z,94.6
2023-02-25T03:50:17.308Z,94.5
2023-02-25T03:51:16.833Z,94.5
2023-02-25T03:52:17.155Z,94.6
2023-02-25T03:53:16.673Z,94.3
2023-02-25T03:54:17.164Z,94.4
2023-02-25T03:55:16.665Z,94.3
2023-02-25T03:56:17.174Z,94.4
2023-02-25T03:57:16.653Z,94.5
2023-02-25T03:58:17.154Z,94.6
2023-02-25T03:59:16.661Z,94.6
2023-02-25T04:00:17.162Z,94.4
2023-02-25T04:01:17.639Z,94.5
2023-02-25T04:02:17.455Z,94.2
2023-02-25T04:03:17.009Z,94.2
2023-02-25T04:04:16.569Z,94.2
2023-02-25T04:05:17.069Z,94.1
2023-02-25T04:06:16.584Z,94.2
2023-02-25T04:07:17.072Z,94.0
2023-02-25T04:08:16.623Z,93.8
2023-02-25T04:09:17.138Z,94.0
2023-02-25T04:10:16.691Z,93.9
2023-02-25T04:11:17.214Z,93.9
2023-02-25T04:12:16.753Z,93.9
2023-02-25T04:13:17.288Z,93.8
2023-02-25T04:14:16.803Z,93.6
2023-02-25T04:15:17.326Z,93.9
2023-02-25T04:16:16.846Z,94.0
2023-02-25T04:17:17.349Z,93.7
2023-02-25T04:18:16.838Z,93.5
2023-02-25T04:19:17.335Z,93.5
2023-02-25T04:20:16.992Z,93.6
2023-02-25T04:21:16.610Z,93.6
2023-02-25T04:22:17.194Z,93.4
2023-02-25T04:23:16.745Z,93.6
2023-02-25T04:24:17.283Z,93.5
2023-02-25T04:25:16.762Z,93.5
2023-02-25T04:26:17.251Z,93.4
2023-02-25T04:27:16.759Z,93.2
2023-02-25T04:28:17.304Z,93.4
2023-02-25T04:29:16.808Z,93.1
2023-02-25T04:30:17.335Z,93.1
2023-02-25T04:31:17.087Z,92.8
2023-02-25T04:32:17.078Z,93.1
2023-02-25T04:33:16.597Z,92.8
2023-02-25T04:34:17.055Z,92.7
2023-02-25T04:35:16.543Z,92.5
2023-02-25T04:36:17.032Z,92.4
2023-02-25T04:37:16.517Z,92.5
2023-02-25T04:38:17.020Z,92.5
2023-02-25T04:39:16.502Z,92.4
2023-02-25T04:40:17.004Z,92.4
2023-02-25T04:41:16.516Z,92.4
2023-02-25T04:42:17.221Z,92.3
2023-02-25T04:43:16.764Z,92.5
2023-02-25T04:44:17.303Z,92.1
2023-02-25T04:45:16.793Z,91.9
2023-02-25T04:46:17.424Z,91.8
2023-02-25T04:47:16.943Z,91.8
2023-02-25T04:48:17.416Z,91.9
2023-02-25T04:49:16.955Z,91.7
2023-02-25T04:50:17.447Z,91.7
2023-02-25T04:51:16.947Z,91.7
2023-02-25T04:52:16.795Z,91.5
2023-02-25T04:53:17.342Z,91.5
2023-02-25T04:54:16.851Z,91.5
2023-02-25T04:55:17.380Z,91.5
2023-02-25T04:56:16.914Z,91.7
2023-02-25T04:57:17.632Z,91.5
2023-02-25T04:58:17.114Z,91.8
2023-02-25T04:59:16.647Z,91.5
2023-02-25T05:00:17.201Z,91.1
2023-02-25T05:01:16.711Z,91.4
2023-02-25T05:02:16.969Z,91.3
2023-02-25T05:03:17.457Z,90.6
2023-02-25T05:04:16.940Z,90.7
2023-02-25T05:05:17.423Z,90.6
2023-02-25T05:06:16.972Z,90.8
2023-02-25T05:07:16.449Z,90.8
2023-02-25T05:08:16.910Z,90.9
2023-02-25T05:09:17.421Z,91.0
2023-02-25T05:10:16.938Z,90.9
2023-02-25T05:11:17.487Z,90.6
2023-02-25T05:12:17.202Z,90.8
2023-02-25T05:13:16.686Z,90.5
2023-02-25T05:14:17.216Z,90.2
2023-02-25T05:15:16.712Z,90.5
2023-02-25T05:16:17.263Z,90.7
2023-02-25T05:17:16.748Z,90.6
2023-02-25T05:18:17.258Z,90.5
2023-02-25T05:19:16.790Z,90.5
2023-02-25T05:20:17.410Z,90.5
2023-02-25T05:21:16.993Z,90.6
2023-02-25T05:22:17.267Z,90.5
2023-02-25T05:23:16.774Z,90.6
2023-02-25T05:24:17.267Z,90.4
2023-02-25T05:25:16.757Z,90.3
2023-02-25T05:26:17.259Z,90.4
2023-02-25T05:27:16.782Z,90.2
2023-02-25T05:28:17.262Z,90.3
2023-02-25T05:29:16.767Z,90.3
2023-02-25T05:30:17.286Z,90.2
2023-02-25T05:31:17.141Z,89.9
2023-02-25T05:32:17.349Z,90.0
2023-02-25T05:33:16.881Z,90.0
2023-02-25T05:34:17.387Z,89.9
2023-02-25T05:35:16.903Z,90.1
2023-02-25T05:36:17.421Z,90.1
2023-02-25T05:37:16.934Z,90.2
2023-02-25T05:38:17.415Z,90.2
2023-02-25T05:39:16.914Z,89.9
2023-02-25T05:40:17.426Z,89.8
2023-02-25T05:41:16.919Z,89.8
2023-02-25T05:42:17.383Z,89.8
2023-02-25T05:43:16.915Z,89.8
2023-02-25T05:44:17.408Z,89.9
2023-02-25T05:45:17.073Z,89.8
2023-02-25T05:46:16.595Z,89.6
2023-02-25T05:47:17.104Z,90.1
2023-02-25T05:48:16.613Z,90.1
2023-02-25T05:49:17.104Z,89.9
2023-02-25T05:50:16.580Z,89.9
2023-02-25T05:51:17.068Z,89.6
2023-02-25T05:52:16.599Z,89.8
2023-02-25T05:53:17.128Z,89.8
2023-02-25T05:54:16.616Z,89.5
2023-02-25T05:55:17.151Z,89.7
2023-02-25T05:56:16.660Z,89.6
2023-02-25T05:57:17.152Z,89.5
2023-02-25T05:58:16.664Z,89.5
2023-02-25T05:59:17.167Z,89.5
2023-02-25T06:00:16.678Z,89.4
2023-02-25T06:01:17.184Z,89.4
2023-02-25T06:02:17.079Z,89.3
2023-02-25T06:03:16.680Z,89.4
2023-02-25T06:04:17.179Z,89.4
2023-02-25T06:05:16.709Z,89.4
2023-02-25T06:06:17.188Z,89.0
2023-02-25T06:07:16.672Z,89.3
2023-02-25T06:08:17.162Z,89.2
2023-02-25T06:09:16.673Z,89.1
2023-02-25T06:10:17.222Z,88.8
2023-02-25T06:11:16.728Z,89.1
2023-02-25T06:12:17.402Z,89.1
2023-02-25T06:13:16.896Z,89.0
2023-02-25T06:14:17.376Z,89.1
2023-02-25T06:15:16.903Z,89.1
2023-02-25T06:16:17.510Z,89.1
2023-02-25T06:17:17.063Z,89.4
2023-02-25T06:18:16.568Z,89.3
2023-02-25T06:19:17.051Z,89.2
2023-02-25T06:20:16.548Z,89.5
2023-02-25T06:21:17.036Z,89.2
2023-02-25T06:22:16.623Z,89.4
2023-02-25T06:23:17.123Z,89.5
2023-02-25T06:24:16.651Z,89.5
2023-02-25T06:25:17.244Z,89.5
2023-02-25T06:26:16.779Z,89.5
2023-02-25T06:27:17.272Z,89.5
2023-02-25T06:28:16.806Z,89.3
2023-02-25T06:29:17.294Z,89.6
2023-02-25T06:30:16.784Z,89.7
2023-02-25T06:31:17.397Z,89.5
2023-02-25T06:32:17.185Z,89.6
2023-02-25T06:33:16.714Z,89.5
2023-02-25T06:34:17.204Z,89.4
2023-02-25T06:35:16.838Z,89.6
2023-02-25T06:36:17.399Z,89.6
2023-02-25T06:37:16.933Z,89.7
2023-02-25T06:38:17.413Z,89.3
2023-02-25T06:39:16.907Z,89.3
2023-02-25T06:40:17.471Z,89.3
2023-02-25T06:41:16.994Z,89.3
2023-02-25T06:42:16.989Z,89.3
2023-02-25T06:43:16.747Z,88.8
2023-02-25T06:44:17.232Z,88.6
2023-02-25T06:45:16.693Z,88.8
2023-02-25T06:46:17.326Z,89.1
2023-02-25T06:47:16.828Z,88.9
2023-02-25T06:48:17.300Z,88.7
2023-02-25T06:49:16.781Z,89.1
2023-02-25T06:50:17.284Z,88.9
2023-02-25T06:51:16.776Z,89.0
2023-02-25T06:52:17.054Z,88.9
2023-02-25T06:53:16.549Z,88.7
2023-02-25T06:54:17.098Z,88.9
2023-02-25T06:55:16.608Z,88.8
2023-02-25T06:56:17.093Z,88.7
2023-02-25T06:57:16.581Z,88.4
2023-02-25T06:58:17.059Z,88.2
2023-02-25T06:59:16.584Z,88.1
2023-02-25T07:00:17.083Z,88.3
2023-02-25T07:01:16.783Z,88.2
2023-02-25T07:02:17.273Z,88.4
2023-02-25T07:03:16.774Z,88.4
2023-02-25T07:04:17.338Z,87.9
2023-02-25T07:05:16.929Z,88.2
2023-02-25T07:06:17.441Z,88.0
2023-02-25T07:07:16.964Z,87.9
2023-02-25T07:08:16.458Z,87.9
2023-02-25T07:09:16.966Z,88.1
2023-02-25T07:10:16.430Z,87.8
2023-02-25T07:11:16.926Z,87.9
2023-02-25T07:12:17.450Z,87.7
2023-02-25T07:13:16.952Z,88.0
2023-02-25T07:14:17.449Z,88.3
2023-02-25T07:15:16.941Z,87.7
2023-02-25T07:16:17.810Z,88.0
2023-02-25T07:17:17.331Z,87.9
2023-02-25T07:18:16.845Z,87.8
2023-02-25T07:19:17.338Z,87.9
2023-02-25T07:20:16.842Z,87.9
2023-02-25T07:21:17.332Z,87.7
2023-02-25T07:22:17.184Z,87.8
2023-02-25T07:23:16.649Z,87.4
2023-02-25T07:24:17.126Z,87.4
2023-02-25T07:25:16.695Z,87.8
2023-02-25T07:26:17.252Z,87.9
2023-02-25T07:27:16.760Z,87.4
2023-02-25T07:28:17.273Z,87.8
2023-02-25T07:29:16.802Z,87.7
2023-02-25T07:30:17.387Z,87.9
2023-02-25T07:31:17.194Z,87.5
2023-02-25T07:32:17.388Z,86.8
2023-02-25T07:33:17.030Z,87.0
2023-02-25T07:34:16.544Z,86.8
2023-02-25T07:35:17.047Z,86.9
2023-02-25T07:36:16.566Z,86.8
2023-02-25T07:37:17.110Z,86.6
2023-02-25T07:38:16.595Z,86.6
2023-02-25T07:39:17.107Z,86.4
2023-02-25T07:40:16.627Z,86.2
2023-02-25T07:41:17.134Z,86.5
2023-02-25T07:42:16.736Z,86.4
2023-02-25T07:43:17.213Z,86.2
2023-02-25T07:44:16.732Z,86.3
2023-02-25T07:45:17.217Z,86.5
2023-02-25T07:46:16.855Z,86.1
2023-02-25T07:47:17.378Z,86.0
2023-02-25T07:48:16.876Z,86.1
2023-02-25T07:49:17.360Z,86.1
2023-02-25T07:50:16.904Z,86.1
2023-02-25T07:51:17.420Z,86.1
2023-02-25T07:52:17.096Z,85.9
2023-02-25T07:53:16.597Z,86.0
2023-02-25T07:54:17.098Z,86.0
2023-02-25T07:55:16.605Z,85.9
2023-02-25T07:56:17.119Z,86.0
2023-02-25T07:57:16.661Z,86.1
2023-02-25T07:58:17.197Z,86.0
2023-02-25T07:59:16.695Z,85.8
2023-02-25T08:00:17.158Z,85.7
2023-02-25T08:01:16.640Z,86.0
2023-02-25T08:02:17.582Z,85.7
2023-02-25T08:03:17.155Z,85.7
2023-02-25T08:04:16.741Z,85.6
2023-02-25T08:05:17.272Z,85.6
2023-02-25T08:06:16.826Z,85.5
2023-02-25T08:07:17.322Z,85.8
2023-02-25T08:08:16.848Z,85.7
2023-02-25T08:09:17.353Z,84.8
2023-02-25T08:10:16.884Z,85.3
2023-02-25T08:11:17.417Z,85.8
2023-02-25T08:12:16.694Z,85.5
2023-02-25T08:13:17.239Z,85.1
2023-02-25T08:14:16.741Z,84.8
2023-02-25T08:15:17.287Z,85.3
2023-02-25T08:16:16.978Z,85.0
2023-02-25T08:17:16.488Z,85.2
2023-02-25T08:18:16.980Z,85.3
2023-02-25T08:19:16.461Z,85.2
2023-02-25T08:20:16.998Z,85.2
2023-02-25T08:21:16.472Z,85.1
2023-02-25T08:22:17.256Z,84.7
2023-02-25T08:23:16.758Z,84.9
2023-02-25T08:24:17.294Z,84.7
2023-02-25T08:25:16.815Z,85.0
2023-02-25T08:26:17.307Z,84.8
2023-02-25T08:27:16.795Z,85.0
2023-02-25T08:28:17.287Z,84.0
2023-02-25T08:29:16.780Z,83.5
2023-02-25T08:30:17.306Z,83.9
2023-02-25T08:31:17.071Z,83.8
2023-02-25T08:32:17.601Z,83.5
2023-02-25T08:33:17.173Z,83.9
2023-02-25T08:34:16.692Z,83.4
2023-02-25T08:35:17.184Z,83.4
2023-02-25T08:36:16.678Z,83.0
2023-02-25T08:37:17.215Z,83.3
2023-02-25T08:38:16.762Z,82.7
2023-02-25T08:39:17.271Z,82.6
2023-02-25T08:40:19.969Z,82.0
2023-02-25T08:41:16.497Z,82.3
2023-02-25T08:42:16.955Z,82.6
2023-02-25T08:43:17.436Z,82.7
2023-02-25T08:44:16.927Z,81.8
2023-02-25T08:45:17.427Z,81.8
2023-02-25T08:46:20.694Z,82.1
2023-02-25T08:47:16.520Z,82.3
2023-02-25T08:48:17.023Z,82.7
2023-02-25T08:49:16.536Z,81.9
2023-02-25T08:50:17.026Z,81.8
2023-02-25T08:51:16.519Z,82.4
2023-02-25T08:52:17.260Z,82.7
2023-02-25T08:53:16.780Z,82.7
2023-02-25T08:54:17.302Z,82.6
2023-02-25T08:55:16.812Z,82.1
2023-02-25T08:56:17.338Z,82.1
2023-02-25T08:57:16.826Z,82.1
2023-02-25T08:58:17.300Z,82.0
2023-02-25T08:59:16.847Z,81.9
2023-02-25T09:00:17.328Z,81.7
2023-02-25T09:01:17.059Z,81.7
2023-02-25T09:02:16.491Z,82.1
2023-02-25T09:03:17.028Z,81.9
2023-02-25T09:04:16.621Z,81.9
2023-02-25T09:05:20.833Z,82.3
2023-02-25T09:06:17.397Z,82.2
2023-02-25T09:07:16.871Z,82.5
2023-02-25T09:08:17.389Z,82.5
2023-02-25T09:09:16.891Z,82.9
2023-02-25T09:10:17.385Z,82.6
2023-02-25T09:11:16.926Z,82.8
2023-02-25T09:12:17.333Z,82.6
2023-02-25T09:13:16.821Z,82.9
2023-02-25T09:14:17.327Z,82.9
2023-02-25T09:15:16.811Z,83.2
2023-02-25T09:16:17.863Z,83.1
2023-02-25T09:17:17.479Z,83.4
2023-02-25T09:18:17.014Z,83.4
2023-02-25T09:19:16.534Z,83.1
2023-02-25T09:20:17.018Z,83.2
2023-02-25T09:21:16.570Z,83.2
2023-02-25T09:22:17.236Z,83.5
2023-02-25T09:23:16.760Z,83.4
2023-02-25T09:24:17.275Z,82.8
2023-02-25T09:25:16.803Z,83.0
2023-02-25T09:26:17.291Z,83.3
2023-02-25T09:27:16.785Z,83.5
2023-02-25T09:28:17.260Z,83.4
2023-02-25T09:29:16.756Z,83.0
2023-02-25T09:30:17.245Z,83.3
2023-02-25T09:31:16.988Z,82.7
2023-02-25T09:32:16.808Z,83.1
2023-02-25T09:33:17.369Z,83.0
2023-02-25T09:34:16.894Z,83.3
2023-02-25T09:35:17.418Z,83.4
2023-02-25T09:36:16.925Z,83.5
2023-02-25T09:37:17.466Z,83.7
2023-02-25T09:38:16.989Z,83.7
2023-02-25T09:39:16.526Z,83.8
2023-02-25T09:40:17.064Z,83.9
2023-02-25T09:41:16.551Z,84.1
2023-02-25T09:42:17.455Z,84.1
2023-02-25T09:43:17.009Z,84.3
2023-02-25T09:44:16.523Z,84.1
2023-02-25T09:45:17.034Z,84.0
2023-02-25T09:46:16.789Z,84.3
2023-02-25T09:47:17.398Z,83.9
2023-02-25T09:48:16.954Z,83.6
2023-02-25T09:49:17.439Z,83.8
2023-02-25T09:50:17.114Z,83.9
2023-02-25T09:51:16.710Z,84.0
2023-02-25T09:52:17.114Z,83.8
2023-02-25T09:53:16.622Z,84.0
2023-02-25T09:54:17.131Z,83.7
2023-02-25T09:55:16.621Z,84.1
2023-02-25T09:56:17.110Z,84.4
2023-02-25T09:57:16.592Z,83.8
2023-02-25T09:58:17.073Z,84.3
2023-02-25T09:59:16.593Z,84.3
2023-02-25T10:00:17.116Z,84.2
2023-02-25T10:01:16.624Z,84.7
2023-02-25T10:02:17.692Z,84.7
2023-02-25T10:03:17.566Z,84.5
2023-02-25T10:04:17.106Z,84.7
2023-02-25T10:05:16.625Z,85.0
2023-02-25T10:06:17.113Z,84.9
2023-02-25T10:07:16.598Z,84.6
2023-02-25T10:08:17.080Z,84.7
2023-02-25T10:09:16.580Z,85.0
2023-02-25T10:10:17.097Z,85.2
2023-02-25T10:11:16.586Z,85.3
2023-02-25T10:12:20.300Z,84.9
2023-02-25T10:13:16.929Z,85.2
2023-02-25T10:14:17.444Z,85.3
2023-02-25T10:15:16.959Z,85.7
2023-02-25T10:16:17.560Z,85.6
2023-02-25T10:17:17.117Z,85.5
2023-02-25T10:18:16.646Z,85.3
2023-02-25T10:19:17.234Z,85.7
2023-02-25T10:20:16.717Z,86.2
2023-02-25T10:21:17.220Z,86.1
2023-02-25T10:22:16.819Z,86.2
2023-02-25T10:23:17.318Z,86.7
2023-02-25T10:24:16.781Z,86.8
2023-02-25T10:25:17.273Z,86.3
2023-02-25T10:26:16.800Z,86.7
2023-02-25T10:27:17.277Z,86.6
2023-02-25T10:28:16.782Z,86.3
2023-02-25T10:29:17.286Z,86.7
2023-02-25T10:30:16.805Z,86.8
2023-02-25T10:31:17.483Z,86.3
2023-02-25T10:32:17.606Z,86.2
2023-02-25T10:33:17.248Z,86.4
2023-02-25T10:34:16.736Z,86.4
2023-02-25T10:35:17.264Z,86.2
2023-02-25T10:36:16.743Z,86.1
2023-02-25T10:37:17.206Z,86.0
2023-02-25T10:38:16.692Z,86.3
2023-02-25T10:39:17.190Z,86.4
2023-02-25T10:40:16.700Z,86.2
2023-02-25T10:41:17.200Z,85.7
2023-02-25T10:42:16.978Z,85.4
2023-02-25T10:43:16.544Z,85.1
2023-02-25T10:44:17.058Z,85.4
2023-02-25T10:45:16.586Z,85.0
2023-02-25T10:46:17.161Z,85.1
2023-02-25T10:47:16.694Z,84.3
2023-02-25T10:48:17.197Z,83.9
2023-02-25T10:49:16.813Z,84.3
2023-02-25T10:50:17.388Z,84.8
2023-02-25T10:51:16.874Z,84.2
2023-02-25T10:52:16.642Z,83.5
2023-02-25T10:53:17.153Z,84.0
2023-02-25T10:54:16.645Z,84.2
2023-02-25T10:55:17.170Z,84.6
2023-02-25T10:56:16.690Z,84.1
2023-02-25T10:57:17.217Z,84.3
2023-02-25T10:58:16.695Z,83.8
2023-02-25T10:59:17.207Z,83.9
2023-02-25T11:00:16.675Z,83.8
2023-02-25T11:01:17.299Z,83.9
2023-02-25T11:02:16.589Z,84.0
2023-02-25T11:03:17.090Z,83.3
2023-02-25T11:04:16.555Z,83.0
2023-02-25T11:05:17.026Z,83.3
2023-02-25T11:06:16.500Z,83.0
2023-02-25T11:07:16.994Z,83.4
2023-02-25T11:08:16.494Z,83.1
2023-02-25T11:09:16.992Z,82.7
2023-02-25T11:10:16.497Z,83.5
2023-02-25T11:11:17.002Z,82.7
2023-02-25T11:12:17.221Z,83.1
2023-02-25T11:13:16.768Z,83.0
2023-02-25T11:14:17.311Z,82.3
2023-02-25T11:15:16.856Z,82.6
2023-02-25T11:16:17.460Z,82.1
2023-02-25T11:17:16.997Z,82.2
2023-02-25T11:18:16.485Z,82.5
2023-02-25T11:19:17.123Z,82.5
2023-02-25T11:20:16.602Z,82.8
2023-02-25T11:21:17.133Z,82.9
2023-02-25T11:22:16.686Z,83.0
2023-02-25T11:23:17.182Z,83.1
2023-02-25T11:24:16.705Z,83.5
2023-02-25T11:25:17.207Z,83.0
2023-02-25T11:26:16.715Z,82.5
2023-02-25T11:27:17.239Z,82.9
2023-02-25T11:28:16.738Z,83.5
2023-02-25T11:29:17.230Z,84.3
2023-02-25T11:30:16.760Z,84.5
2023-02-25T11:31:17.569Z,84.9
2023-02-25T11:32:17.129Z,85.9
2023-02-25T11:33:16.712Z,86.2
2023-02-25T11:34:17.189Z,87.0
2023-02-25T11:35:16.706Z,87.3
2023-02-25T11:36:17.196Z,89.3
2023-02-25T11:37:16.693Z,90.0
2023-02-25T11:38:17.206Z,90.2
2023-02-25T11:39:16.776Z,90.6
2023-02-25T11:40:17.285Z,90.6
2023-02-25T11:41:16.802Z,90.9
2023-02-25T11:42:17.049Z,90.6
2023-02-25T11:43:16.548Z,91.1
2023-02-25T11:44:17.043Z,91.6
2023-02-25T11:45:16.544Z,90.8
2023-02-25T11:46:17.258Z,90.8
2023-02-25T11:47:16.764Z,90.9
2023-02-25T11:48:17.246Z,91.0
2023-02-25T11:49:16.756Z,91.5
2023-02-25T11:50:17.375Z,91.8
2023-02-25T11:51:16.950Z,91.2
2023-02-25T11:52:17.535Z,90.6
2023-02-25T11:53:17.276Z,89.6
2023-02-25T11:54:16.817Z,88.9
2023-02-25T11:55:17.348Z,88.9
2023-02-25T11:56:16.889Z,88.4
2023-02-25T11:57:17.445Z,87.6
2023-02-25T11:58:16.958Z,87.4
2023-02-25T11:59:17.486Z,87.5
2023-02-25T12:00:17.009Z,87.6
2023-02-25T12:01:16.520Z,86.9
2023-02-25T12:02:17.194Z,87.3
2023-02-25T12:03:16.718Z,86.8
2023-02-25T12:04:17.218Z,85.8
2023-02-25T12:05:16.942Z,84.9
2023-02-25T12:06:16.519Z,84.8
2023-02-25T12:07:17.062Z,84.8
2023-02-25T12:08:16.612Z,84.8
2023-02-25T12:09:17.095Z,84.8
2023-02-25T12:10:16.569Z,84.5
2023-02-25T12:11:17.068Z,83.9
2023-02-25T12:12:16.812Z,83.1
2023-02-25T12:13:17.418Z,82.8
2023-02-25T12:14:16.952Z,83.3
2023-02-25T12:15:17.482Z,82.9
2023-02-25T12:16:17.090Z,83.0
2023-02-25T12:17:16.605Z,82.4
2023-02-25T12:18:17.094Z,82.7
2023-02-25T12:19:16.555Z,82.0
2023-02-25T12:20:17.054Z,80.8
2023-02-25T12:21:16.557Z,80.0
2023-02-25T12:22:17.247Z,79.5
2023-02-25T12:23:16.735Z,80.4
2023-02-25T12:24:17.235Z,80.1
2023-02-25T12:25:16.697Z,80.9
2023-02-25T12:26:17.168Z,80.9
2023-02-25T12:27:16.684Z,81.7
2023-02-25T12:28:17.154Z,82.4
2023-02-25T12:29:16.643Z,82.9
2023-02-25T12:30:17.142Z,84.5
2023-02-25T12:31:16.698Z,86.2
2023-02-25T12:32:17.461Z,88.0
2023-02-25T12:33:17.063Z,89.4
2023-02-25T12:34:16.550Z,89.9
2023-02-25T12:35:17.071Z,90.0
2023-02-25T12:36:16.551Z,89.9
2023-02-25T12:37:17.060Z,90.6
2023-02-25T12:38:16.565Z,90.0
2023-02-25T12:39:17.054Z,90.5
2023-02-25T12:40:16.555Z,90.2
2023-02-25T12:41:17.086Z,89.8
2023-02-25T12:42:16.497Z,89.8
2023-02-25T12:43:17.001Z,89.6
2023-02-25T12:44:16.485Z,90.0
2023-02-25T12:45:17.009Z,89.9
2023-02-25T12:46:16.536Z,90.2
2023-02-25T12:47:17.046Z,90.2
2023-02-25T12:48:16.582Z,91.1
2023-02-25T12:49:17.115Z,91.2
2023-02-25T12:50:16.620Z,90.7
2023-02-25T12:51:17.136Z,90.5
2023-02-25T12:52:17.769Z,90.3
2023-02-25T12:53:17.256Z,90.4
2023-02-25T12:54:16.742Z,90.2
2023-02-25T12:55:17.217Z,90.2
2023-02-25T12:56:16.696Z,90.1
2023-02-25T12:57:17.190Z,91.0
2023-02-25T12:58:16.895Z,90.8
2023-02-25T12:59:17.402Z,90.5
2023-02-25T13:00:16.909Z,90.2
2023-02-25T13:01:17.516Z,89.7
2023-02-25T13:02:16.940Z,90.0
2023-02-25T13:03:17.436Z,89.9
2023-02-25T13:04:17.062Z,89.3
2023-02-25T13:05:16.614Z,89.2
2023-02-25T13:06:17.078Z,89.1
2023-02-25T13:07:16.570Z,89.4
2023-02-25T13:08:17.114Z,89.9
2023-02-25T13:09:16.604Z,89.8
2023-02-25T13:10:17.070Z,90.3
2023-02-25T13:11:16.589Z,90.2
2023-02-25T13:12:16.549Z,89.9
2023-02-25T13:13:17.058Z,90.3
2023-02-25T13:14:16.542Z,89.7
2023-02-25T13:15:17.030Z,89.9
2023-02-25T13:16:16.644Z,89.2
2023-02-25T13:17:17.209Z,88.7
2023-02-25T13:18:16.739Z,87.9